Time;durP1;ratioP1;P1;durP2;ratioP2;P2;SDS_P1;SDS_P2;PMS_P1;PMS_P2;Temp;Humidity;BMP_temperature;BMP_pressure;BME280_temperature;BME280_humidity;BME280_pressure;Samples;Min_cycle;Max_cycle;Signal;HPM_P1;HPM_P2
2023/12/06 00:01:49;;;;;;;0.63;0.40;;;;;;;3.95;100.00;147195.59;4984282;28;20240;-56
2023/12/06 00:04:17;;;;;;;1.67;0.57;;;;;;;3.94;100.00;147191.84;4986382;28;20243;-57
2023/12/06 00:06:43;;;;;;;1.47;0.67;;;;;;;3.90;100.00;147183.19;4983833;28;20228;-57
2023/12/06 00:09:10;;;;;;;1.87;0.67;;;;;;;3.88;100.00;147178.22;4987230;28;20234;-55
2023/12/06 00:11:37;;;;;;;3.13;0.70;;;;;;;3.91;100.00;147185.66;4977097;28;20602;-56
2023/12/06 00:14:03;;;;;;;1.50;0.60;;;;;;;3.92;100.00;147188.16;4987911;28;20221;-54
2023/12/06 00:16:30;;;;;;;4.67;0.70;;;;;;;3.98;100.00;147201.75;4983683;28;20591;-56
2023/12/06 00:18:56;;;;;;;1.70;0.60;;;;;;;3.94;100.00;147191.84;4987245;28;20235;-53
2023/12/06 00:21:24;;;;;;;1.33;0.53;;;;;;;3.98;100.00;147203.03;4985985;28;20788;-56
2023/12/06 00:23:51;;;;;;;0.60;0.50;;;;;;;3.96;100.00;147198.06;4983970;28;20221;-55
2023/12/06 00:26:17;;;;;;;1.37;0.50;;;;;;;3.97;100.00;147200.53;4986199;28;20240;-54
2023/12/06 00:28:44;;;;;;;1.87;0.60;;;;;;;3.93;100.00;147189.34;4984791;28;20595;-54
2023/12/06 00:31:11;;;;;;;1.03;0.70;;;;;;;3.94;100.00;147191.84;4986696;28;20224;-53
2023/12/06 00:33:37;;;;;;;3.03;0.70;;;;;;;3.93;100.00;147190.63;4983317;28;20231;-56
2023/12/06 00:36:05;;;;;;;0.83;0.57;;;;;;;3.97;100.00;147199.28;4986498;28;20237;-54
2023/12/06 00:38:33;;;;;;;1.30;0.70;;;;;;;3.92;100.00;147186.88;4983543;28;20216;-54
2023/12/06 00:41:00;;;;;;;1.70;0.50;;;;;;;3.94;100.00;147193.09;4987061;28;20260;-54
2023/12/06 00:43:27;;;;;;;1.20;0.70;;;;;;;3.93;100.00;147190.63;4983183;28;21694;-57
2023/12/06 00:45:54;;;;;;;1.07;0.63;;;;;;;3.96;100.00;147198.06;4986335;28;20236;-54
2023/12/06 00:48:21;;;;;;;2.20;1.00;;;;;;;3.97;100.00;147200.53;4983635;28;20238;-53
2023/12/06 00:50:47;;;;;;;2.57;0.70;;;;;;;4.04;100.00;147215.41;4987460;28;20692;-55
2023/12/06 00:53:14;;;;;;;2.73;0.90;;;;;;;4.00;100.00;147206.72;4986906;28;20237;-55
2023/12/06 00:55:42;;;;;;;1.90;0.70;;;;;;;3.99;100.00;147205.50;4983920;28;20241;-54
2023/12/06 00:58:08;;;;;;;2.67;0.80;;;;;;;4.03;100.00;147214.16;4985563;28;20237;-54
2023/12/06 01:00:35;;;;;;;3.73;0.83;;;;;;;4.02;100.00;147211.69;4982060;28;20700;-54
2023/12/06 01:03:02;;;;;;;1.23;0.70;;;;;;;4.06;100.00;147220.38;4986215;28;20240;-54
2023/12/06 01:05:28;;;;;;;2.90;0.80;;;;;;;4.03;100.00;147214.16;4981733;28;20586;-57
2023/12/06 01:07:55;;;;;;;0.97;0.70;;;;;;;4.03;100.00;147214.16;4986599;28;20232;-57
2023/12/06 01:10:23;;;;;;;2.03;0.80;;;;;;;4.07;100.00;147224.09;4987276;28;20240;-57
2023/12/06 01:12:51;;;;;;;4.90;1.00;;;;;;;4.05;100.00;147217.91;4983246;28;20325;-54
2023/12/06 01:15:17;;;;;;;1.47;1.07;;;;;;;4.05;100.00;147217.91;4985785;28;20229;-53
2023/12/06 01:17:45;;;;;;;5.90;1.00;;;;;;;4.08;100.00;147226.56;4982898;28;20729;-57
2023/12/06 01:20:12;;;;;;;1.20;1.03;;;;;;;4.06;100.00;147221.59;4986465;28;20228;-56
2023/12/06 01:22:39;;;;;;;2.67;0.97;;;;;;;4.05;100.00;147217.91;4983157;28;20595;-56
2023/12/06 01:25:06;;;;;;;1.20;0.87;;;;;;;4.06;100.00;147220.38;4984613;28;20225;-54
2023/12/06 01:27:35;;;;;;;2.33;1.00;;;;;;;4.08;100.00;147226.56;4986206;28;20584;-55
2023/12/06 01:30:04;;;;;;;2.03;0.80;;;;;;;4.07;100.00;147224.09;4989474;28;20591;-56
2023/12/06 01:32:30;;;;;;;2.00;0.93;;;;;;;4.08;100.00;147226.56;4985113;28;20291;-56
2023/12/06 01:34:57;;;;;;;1.80;1.00;;;;;;;4.12;100.00;147235.25;4987301;28;20225;-56
2023/12/06 01:37:23;;;;;;;1.67;1.00;;;;;;;4.12;100.00;147236.47;4987267;28;20235;-56
2023/12/06 01:39:50;;;;;;;1.57;0.90;;;;;;;4.09;100.00;147229.03;4986062;28;20236;-56
2023/12/06 01:42:16;;;;;;;2.00;1.17;;;;;;;4.09;100.00;147227.81;4988908;28;20225;-55
2023/12/06 01:44:43;;;;;;;2.67;1.10;;;;;;;4.13;100.00;147238.97;4986794;28;20213;-56
2023/12/06 01:47:11;;;;;;;2.30;1.10;;;;;;;4.14;100.00;147241.44;4985632;28;20868;-53
2023/12/06 01:49:39;;;;;;;2.83;1.40;;;;;;;4.11;100.00;147234.00;4985134;28;20237;-54
2023/12/06 01:52:07;;;;;;;2.57;0.90;;;;;;;4.12;100.00;147235.25;4985499;28;20244;-54
2023/12/06 01:54:34;;;;;;;2.33;1.17;;;;;;;4.19;100.00;147251.34;4985459;28;20243;-56
2023/12/06 01:57:01;;;;;;;2.33;0.80;;;;;;;4.19;100.00;147252.63;4988319;28;20233;-57
2023/12/06 01:59:28;;;;;;;2.60;0.80;;;;;;;4.22;100.00;147258.81;4984038;28;20242;-53
2023/12/06 02:01:55;;;;;;;2.60;0.93;;;;;;;4.21;100.00;147256.31;4985814;28;20241;-56
2023/12/06 02:04:23;;;;;;;2.23;1.00;;;;;;;4.22;100.00;147258.81;4985740;28;20323;-54
2023/12/06 02:06:50;;;;;;;4.00;0.97;;;;;;;4.18;100.00;147248.88;4964991;28;20248;-58
2023/12/06 02:09:18;;;;;;;1.77;0.87;;;;;;;4.14;100.00;147240.22;4908609;28;20299;-58
2023/12/06 02:11:45;;;;;;;1.53;0.80;;;;;;;4.18;100.00;147248.88;4955322;28;20228;-56
2023/12/06 02:14:12;;;;;;;3.37;0.70;;;;;;;4.17;100.00;147246.41;4985914;28;20233;-57
2023/12/06 02:16:39;;;;;;;2.50;0.93;;;;;;;4.19;100.00;147251.34;4983726;28;20445;-55
2023/12/06 02:19:08;;;;;;;1.70;0.83;;;;;;;4.23;100.00;147261.28;4988757;28;21043;-55
2023/12/06 02:21:36;;;;;;;2.37;0.47;;;;;;;4.24;100.00;147264.97;4986470;28;20236;-57
2023/12/06 02:24:03;;;;;;;1.40;0.63;;;;;;;4.23;100.00;147262.53;4990485;28;20239;-53
2023/12/06 02:26:31;;;;;;;2.60;0.80;;;;;;;4.22;100.00;147260.06;4985348;28;20244;-56
2023/12/06 02:28:58;;;;;;;2.03;0.83;;;;;;;4.21;100.00;147256.31;4970066;28;20246;-54
2023/12/06 02:31:25;;;;;;;1.40;0.80;;;;;;;4.19;100.00;147252.63;4988780;28;20244;-55
2023/12/06 02:33:53;;;;;;;1.73;0.70;;;;;;;4.21;100.00;147257.59;4985562;28;20235;-55
2023/12/06 02:36:24;;;;;;;0.90;0.60;;;;;;;4.17;100.00;147246.41;4988201;28;20240;-56
2023/12/06 02:38:51;;;;;;;1.90;0.80;;;;;;;4.19;100.00;147251.34;4985242;28;20307;-56
2023/12/06 02:41:19;;;;;;;2.10;0.80;;;;;;;4.18;100.00;147248.88;4989413;28;20703;-54
2023/12/06 02:43:47;;;;;;;0.90;0.60;;;;;;;4.22;100.00;147258.81;4985893;28;20237;-54
2023/12/06 02:46:14;;;;;;;1.70;0.93;;;;;;;4.20;100.00;147253.84;4987563;28;20247;-57
2023/12/06 02:48:41;;;;;;;2.73;0.63;;;;;;;4.20;100.00;147255.09;4985015;28;20229;-55
2023/12/06 02:51:08;;;;;;;2.30;0.83;;;;;;;4.19;100.00;147252.63;4988002;28;20229;-57
2023/12/06 02:53:34;;;;;;;1.57;0.80;;;;;;;4.21;100.00;147257.59;4985230;28;20224;-57
2023/12/06 02:56:01;;;;;;;1.20;0.70;;;;;;;4.21;100.00;147257.59;4987747;28;20240;-55
2023/12/06 02:58:27;;;;;;;2.00;0.97;;;;;;;4.22;100.00;147260.06;4985084;28;20228;-56
2023/12/06 03:00:56;;;;;;;3.00;1.00;;;;;;;4.21;100.00;147256.31;4987820;28;20236;-55
2023/12/06 03:03:22;;;;;;;1.63;0.70;;;;;;;4.21;100.00;147257.59;4987373;28;20244;-54
2023/12/06 03:05:49;;;;;;;2.63;0.70;;;;;;;4.21;100.00;147257.59;4985485;28;20579;-56
2023/12/06 03:08:15;;;;;;;0.90;0.80;;;;;;;4.24;100.00;147263.75;4987925;28;20232;-56
2023/12/06 03:10:42;;;;;;;3.13;0.80;;;;;;;4.16;100.00;147245.19;4985235;28;20236;-55
2023/12/06 03:13:09;;;;;;;0.80;0.70;;;;;;;4.19;100.00;147252.63;4987431;28;20235;-57
2023/12/06 03:15:35;;;;;;;1.00;0.70;;;;;;;4.20;100.00;147255.09;4985311;28;20681;-55
2023/12/06 03:18:03;;;;;;;1.77;0.90;;;;;;;4.18;100.00;147248.88;4987646;28;20225;-54
2023/12/06 03:20:30;;;;;;;1.63;0.67;;;;;;;4.19;100.00;147251.34;4984714;28;20224;-54
2023/12/06 03:22:57;;;;;;;1.93;0.90;;;;;;;4.15;100.00;147242.69;4987149;28;20325;-54
2023/12/06 03:25:23;;;;;;;2.13;1.07;;;;;;;4.15;100.00;147242.69;4987867;28;20247;-55
2023/12/06 03:27:50;;;;;;;2.67;0.87;;;;;;;4.12;100.00;147235.25;4985168;28;20236;-57
2023/12/06 03:30:17;;;;;;;1.30;0.70;;;;;;;4.11;100.00;147232.78;4987081;28;20247;-56
2023/12/06 03:32:44;;;;;;;1.73;1.10;;;;;;;4.11;100.00;147234.00;4984448;28;20701;-57
2023/12/06 03:35:12;;;;;;;2.03;0.90;;;;;;;4.14;100.00;147240.22;4986902;28;20260;-55
2023/12/06 03:37:38;;;;;;;1.63;0.90;;;;;;;4.15;100.00;147242.69;4976048;28;20229;-57
2023/12/06 03:40:06;;;;;;;2.67;0.90;;;;;;;4.21;100.00;147257.59;4987466;28;20229;-56
2023/12/06 03:42:33;;;;;;;2.10;0.83;;;;;;;4.22;100.00;147258.81;4983958;28;20228;-55
2023/12/06 03:44:59;;;;;;;2.80;1.00;;;;;;;4.17;100.00;147246.41;4986591;28;20237;-54
2023/12/06 03:47:26;;;;;;;2.83;0.83;;;;;;;4.19;100.00;147251.34;4984905;28;20239;-55
2023/12/06 03:49:55;;;;;;;3.93;1.10;;;;;;;4.16;100.00;147243.91;4983165;28;20225;-54
2023/12/06 03:52:23;;;;;;;1.23;0.87;;;;;;;4.19;100.00;147251.34;4980121;28;20242;-56
2023/12/06 03:54:49;;;;;;;1.53;0.60;;;;;;;4.20;100.00;147253.84;4983705;28;20229;-56
2023/12/06 03:57:16;;;;;;;2.33;0.97;;;;;;;4.20;100.00;147255.09;4987191;28;20229;-56
2023/12/06 03:59:43;;;;;;;1.27;0.90;;;;;;;4.20;100.00;147255.09;4984026;28;20229;-55
2023/12/06 04:02:09;;;;;;;3.50;0.97;;;;;;;4.17;100.00;147247.66;4978493;28;20233;-56
2023/12/06 04:04:36;;;;;;;4.27;1.20;;;;;;;4.13;100.00;147237.75;4982055;28;20602;-55
2023/12/06 04:07:03;;;;;;;3.43;0.70;;;;;;;4.10;100.00;147231.53;4987500;28;20228;-56
2023/12/06 04:09:31;;;;;;;4.20;0.80;;;;;;;4.14;100.00;147240.22;4983464;28;20317;-53
2023/12/06 04:11:58;;;;;;;1.97;0.90;;;;;;;4.11;100.00;147232.78;4986161;28;20300;-55
2023/12/06 04:14:26;;;;;;;1.63;0.70;;;;;;;4.07;100.00;147222.88;4987251;28;20230;-53
2023/12/06 04:16:53;;;;;;;1.10;0.70;;;;;;;4.07;100.00;147222.88;4984550;28;20240;-54
2023/12/06 04:19:20;;;;;;;2.50;0.87;;;;;;;4.04;100.00;147215.41;4986169;28;20696;-56
2023/12/06 04:21:46;;;;;;;1.23;0.83;;;;;;;4.09;100.00;147229.03;4984231;28;20221;-56
2023/12/06 04:24:13;;;;;;;1.27;0.70;;;;;;;4.08;100.00;147225.34;4985793;28;20251;-57
2023/12/06 04:26:41;;;;;;;1.10;0.70;;;;;;;4.06;100.00;147220.38;4982379;28;20229;-54
2023/12/06 04:29:07;;;;;;;1.30;0.80;;;;;;;4.03;100.00;147212.94;4987267;28;20228;-56
2023/12/06 04:31:35;;;;;;;1.23;0.60;;;;;;;4.05;100.00;147219.13;5214675;23;20234;-60
2023/12/06 04:34:02;;;;;;;1.63;0.63;;;;;;;4.04;100.00;147216.63;4996329;28;20291;-59
2023/12/06 04:36:28;;;;;;;1.57;0.80;;;;;;;4.03;100.00;147214.16;4993701;28;20221;-60
2023/12/06 04:38:55;;;;;;;0.90;0.60;;;;;;;4.03;100.00;147212.94;4995345;28;20597;-60
2023/12/06 04:41:22;;;;;;;1.10;0.70;;;;;;;4.03;100.00;147212.94;5000156;28;20237;-60
2023/12/06 04:46:31;;;;;;;2.73;1.23;;;;;;;3.97;100.00;147200.53;5009270;23;20726;-54
2023/12/06 04:48:58;;;;;;;2.20;1.43;;;;;;;3.98;100.00;147201.75;4987081;28;20612;-55
2023/12/06 04:51:25;;;;;;;4.10;1.40;;;;;;;3.95;100.00;147194.31;4986399;28;20233;-56
2023/12/06 04:53:51;;;;;;;1.53;1.20;;;;;;;3.92;100.00;147188.16;4987706;28;20241;-55
2023/12/06 04:56:18;;;;;;;1.90;1.27;;;;;;;3.94;100.00;147193.09;4990516;28;20684;-55
2023/12/06 04:58:44;;;;;;;2.13;1.30;;;;;;;3.93;100.00;147189.34;4987862;28;20212;-56
2023/12/06 05:01:11;;;;;;;1.87;1.30;;;;;;;3.90;100.00;147181.91;4991056;28;20262;-53
2023/12/06 05:03:39;;;;;;;3.77;1.10;;;;;;;3.92;100.00;147186.88;4980838;28;20233;-53
2023/12/06 05:06:06;;;;;;;3.63;1.33;;;;;;;3.94;100.00;147193.09;4982812;28;20798;-56
2023/12/06 05:08:32;;;;;;;3.13;1.40;;;;;;;3.96;100.00;147198.06;4976296;28;20224;-53
2023/12/06 05:10:59;;;;;;;2.90;1.50;;;;;;;3.98;100.00;147201.75;4972810;28;20240;-53
2023/12/06 05:13:26;;;;;;;3.70;1.73;;;;;;;3.92;100.00;147186.88;4986438;28;20232;-53
2023/12/06 05:15:53;;;;;;;3.70;1.70;;;;;;;3.92;100.00;147186.88;4985279;28;20314;-53
2023/12/06 05:18:20;;;;;;;2.33;1.43;;;;;;;3.91;100.00;147184.41;4984483;28;20329;-54
2023/12/06 05:20:48;;;;;;;7.13;3.40;;;;;;;3.86;100.00;147173.28;4980800;28;20240;-56
2023/12/06 05:23:14;;;;;;;6.30;2.77;;;;;;;3.83;100.00;147165.81;4982458;28;20736;-56
2023/12/06 05:25:41;;;;;;;3.20;2.30;;;;;;;3.84;100.00;147168.31;4983718;28;20243;-55
2023/12/06 05:28:08;;;;;;;2.60;1.70;;;;;;;3.84;100.00;147169.53;4986599;28;20224;-53
2023/12/06 05:30:34;;;;;;;9.00;4.93;;;;;;;3.81;100.00;147162.09;4982286;28;20584;-54
2023/12/06 05:33:01;;;;;;;3.23;1.77;;;;;;;3.83;100.00;147165.81;4989344;28;20237;-53
2023/12/06 05:35:27;;;;;;;4.27;2.13;;;;;;;3.90;100.00;147181.91;4993663;28;20242;-56
2023/12/06 05:37:55;;;;;;;3.87;2.33;;;;;;;3.89;100.00;147180.72;4986274;28;20226;-54
2023/12/06 05:40:22;;;;;;;3.87;2.10;;;;;;;3.90;100.00;147183.19;4981682;28;20220;-56
2023/12/06 05:42:48;;;;;;;5.70;3.50;;;;;;;3.93;100.00;147190.63;4980443;28;20240;-54
2023/12/06 05:45:16;;;;;;;3.70;2.60;;;;;;;3.94;100.00;147191.84;4986753;28;20236;-53
2023/12/06 05:47:43;;;;;;;5.73;3.43;;;;;;;3.95;100.00;147194.31;4985103;28;20223;-53
2023/12/06 05:50:12;;;;;;;4.37;2.40;;;;;;;3.97;100.00;147199.28;4992806;28;20233;-55
2023/12/06 05:52:39;;;;;;;5.07;2.60;;;;;;;3.96;100.00;147196.81;4986492;28;20269;-55
2023/12/06 05:55:08;;;;;;;4.67;3.03;;;;;;;3.98;100.00;147203.03;4986593;28;20693;-56
2023/12/06 05:57:34;;;;;;;8.00;3.07;;;;;;;3.98;100.00;147203.03;4984389;28;20243;-53
2023/12/06 06:00:01;;;;;;;6.73;3.80;;;;;;;4.01;100.00;147207.97;4987440;28;20224;-55
2023/12/06 06:02:37;;;;;;;6.10;3.70;;;;;;;4.02;100.00;147211.69;4981674;28;20248;-53
2023/12/06 06:05:04;;;;;;;5.00;3.80;;;;;;;4.01;100.00;147207.97;4987594;28;20233;-56
2023/12/06 06:07:30;;;;;;;7.63;3.50;;;;;;;4.08;100.00;147226.56;4983776;28;20232;-55
2023/12/06 06:09:57;;;;;;;5.13;3.13;;;;;;;4.03;100.00;147212.94;4992493;28;20228;-56
2023/12/06 06:12:25;;;;;;;5.67;2.90;;;;;;;4.12;100.00;147235.25;4990096;28;20277;-56
2023/12/06 06:14:51;;;;;;;5.53;4.07;;;;;;;4.13;100.00;147238.97;4986906;28;20248;-54
2023/12/06 06:17:18;;;;;;;5.37;4.03;;;;;;;4.15;100.00;147242.69;4997699;28;20739;-53
2023/12/06 06:19:45;;;;;;;4.43;3.40;;;;;;;4.18;100.00;147250.16;4993513;28;20244;-54
2023/12/06 06:22:12;;;;;;;9.20;3.80;;;;;;;4.16;100.00;147245.19;4996490;28;20749;-53
2023/12/06 06:24:38;;;;;;;8.17;5.00;;;;;;;4.12;100.00;147235.25;4985349;28;20227;-56
2023/12/06 06:27:05;;;;;;;12.40;5.60;;;;;;;4.05;100.00;147219.13;4986425;28;20232;-56
2023/12/06 06:29:33;;;;;;;8.57;5.77;;;;;;;3.99;100.00;147205.50;4983054;28;20236;-56
2023/12/06 06:32:00;;;;;;;10.97;5.83;;;;;;;3.97;100.00;147200.53;4984992;28;20834;-54
2023/12/06 06:34:26;;;;;;;10.77;5.80;;;;;;;3.94;100.00;147191.84;4992896;28;20229;-54
2023/12/06 06:36:53;;;;;;;12.07;7.07;;;;;;;3.85;100.00;147170.78;4987629;28;20245;-53
2023/12/06 06:39:19;;;;;;;12.87;6.53;;;;;;;3.79;100.00;147155.91;4987465;28;20234;-57
2023/12/06 06:41:46;;;;;;;11.80;7.93;;;;;;;3.67;100.00;147128.63;4986247;28;20228;-57
2023/12/06 06:44:13;;;;;;;14.13;8.30;;;;;;;3.64;100.00;147121.19;4991396;28;20229;-56
2023/12/06 06:46:41;;;;;;;15.17;9.47;;;;;;;3.62;100.00;147115.03;4987757;28;20225;-56
2023/12/06 06:49:07;;;;;;;15.47;8.30;;;;;;;3.60;100.00;147111.28;4992680;28;20221;-57
2023/12/06 06:51:35;;;;;;;26.23;13.23;;;;;;;3.58;100.00;147106.31;4987850;28;20231;-57
2023/12/06 06:54:02;;;;;;;16.13;9.33;;;;;;;3.55;100.00;147098.88;4990243;28;20323;-57
2023/12/06 06:56:28;;;;;;;23.33;13.43;;;;;;;3.57;100.00;147103.84;4987791;28;20244;-56
2023/12/06 06:58:55;;;;;;;17.60;10.80;;;;;;;3.56;100.00;147101.38;4992340;28;20241;-57
2023/12/06 07:01:22;;;;;;;13.60;8.87;;;;;;;3.57;100.00;147103.84;4990994;28;20234;-56
2023/12/06 07:03:51;;;;;;;15.87;9.10;;;;;;;3.53;100.00;147095.19;4986677;28;20252;-56
2023/12/06 07:06:17;;;;;;;17.50;10.37;;;;;;;3.57;100.00;147103.84;4980435;28;20231;-56
2023/12/06 07:08:44;;;;;;;29.73;22.87;;;;;;;3.57;100.00;147103.84;5003734;28;20584;-56
2023/12/06 07:11:11;;;;;;;17.50;9.83;;;;;;;3.54;100.00;147097.66;5004668;28;20244;-55
2023/12/06 07:13:37;;;;;;;15.27;9.07;;;;;;;3.43;100.00;147070.41;4999147;28;20852;-54
2023/12/06 07:16:05;;;;;;;15.17;9.40;;;;;;;3.43;100.00;147069.16;5001963;28;20710;-55
2023/12/06 07:18:32;;;;;;;16.87;10.37;;;;;;;3.43;100.00;147069.16;5007393;28;20228;-54
2023/12/06 07:21:00;;;;;;;15.70;9.70;;;;;;;3.40;100.00;147064.19;5005642;28;20727;-56
2023/12/06 07:23:27;;;;;;;14.03;9.17;;;;;;;3.39;100.00;147061.72;5002505;28;20224;-54
2023/12/06 07:25:54;;;;;;;15.13;10.27;;;;;;;3.40;100.00;147064.19;5002687;28;20224;-55
2023/12/06 07:28:21;;;;;;;15.40;10.30;;;;;;;3.37;100.00;147056.75;5007220;28;20316;-54
2023/12/06 07:30:47;;;;;;;19.47;11.00;;;;;;;3.36;100.00;147053.06;5002067;28;20604;-52
2023/12/06 07:33:14;;;;;;;14.53;9.77;;;;;;;3.40;100.00;147064.19;5002252;28;20228;-52
2023/12/06 07:35:41;;;;;;;18.17;11.67;;;;;;;3.38;100.00;147058.00;4983283;28;20224;-53
2023/12/06 07:38:10;;;;;;;28.77;16.90;;;;;;;3.41;100.00;147065.44;5005633;28;20303;-56
2023/12/06 07:40:37;;;;;;;26.43;14.50;;;;;;;3.44;100.00;147071.63;5004949;28;20217;-56
2023/12/06 07:43:04;;;;;;;21.40;12.43;;;;;;;3.46;100.00;147076.56;5007977;28;20611;-57
2023/12/06 07:45:31;;;;;;;17.97;11.20;;;;;;;3.40;100.00;147064.19;5008490;28;20236;-56
2023/12/06 07:47:57;;;;;;;17.17;10.97;;;;;;;3.33;100.00;147045.63;5004465;28;20314;-56
2023/12/06 07:50:25;;;;;;;17.23;11.50;;;;;;;3.32;100.00;147044.34;5014117;28;20224;-57
2023/12/06 07:52:52;;;;;;;19.03;11.53;;;;;;;3.31;100.00;147041.88;5004151;28;20649;-57
2023/12/06 07:55:20;;;;;;;20.87;12.50;;;;;;;3.35;100.00;147050.56;5008430;28;20905;-56
2023/12/06 07:57:47;;;;;;;20.33;12.77;;;;;;;3.32;100.00;147043.13;5003651;28;20216;-57
2023/12/06 08:00:14;;;;;;;23.43;12.03;;;;;;;3.34;100.00;147048.09;5000070;28;20233;-55
2023/12/06 08:02:42;;;;;;;18.07;10.60;;;;;;;3.40;100.00;147062.97;5004445;28;20224;-56
2023/12/06 08:05:09;;;;;;;17.00;11.27;;;;;;;3.34;100.00;147048.09;5006838;28;20237;-57
2023/12/06 08:07:36;;;;;;;21.37;14.27;;;;;;;3.37;100.00;147055.53;5003339;28;20240;-54
2023/12/06 08:10:08;;;;;;;22.03;13.97;;;;;;;3.40;100.00;147062.97;5007486;28;20243;-55
2023/12/06 08:12:36;;;;;;;17.57;11.10;;;;;;;3.34;100.00;147048.09;5006367;28;20308;-54
2023/12/06 08:15:05;;;;;;;21.37;13.27;;;;;;;3.34;100.00;147049.31;5009519;28;20238;-55
2023/12/06 08:17:32;;;;;;;18.03;11.50;;;;;;;3.33;100.00;147045.63;5004268;28;20244;-56
2023/12/06 08:19:58;;;;;;;21.83;12.37;;;;;;;3.30;100.00;147038.19;5008210;28;20760;-54
2023/12/06 08:22:26;;;;;;;23.47;15.40;;;;;;;3.32;100.00;147043.13;5008687;28;20230;-57
2023/12/06 08:24:56;;;;;;;23.43;13.50;;;;;;;3.33;100.00;147046.84;5006544;28;20244;-54
2023/12/06 08:27:24;;;;;;;20.17;12.20;;;;;;;3.31;100.00;147041.88;4980749;28;20235;-56
2023/12/06 08:29:52;;;;;;;19.60;12.13;;;;;;;3.38;100.00;147058.00;5002506;28;20634;-54
2023/12/06 08:32:19;;;;;;;22.77;11.07;;;;;;;3.36;100.00;147053.06;5004535;28;20239;-56
2023/12/06 08:34:46;;;;;;;17.70;11.30;;;;;;;3.34;100.00;147049.31;4994775;28;20639;-56
2023/12/06 08:37:12;;;;;;;17.83;11.00;;;;;;;3.36;100.00;147053.06;5007921;28;20689;-56
2023/12/06 08:39:39;;;;;;;18.17;11.50;;;;;;;3.36;100.00;147053.06;5002691;28;20240;-56
2023/12/06 08:42:06;;;;;;;18.70;11.60;;;;;;;3.31;100.00;147041.88;5012332;28;20598;-57
2023/12/06 08:44:33;;;;;;;17.60;11.50;;;;;;;3.33;100.00;147046.84;5007233;28;20239;-54
2023/12/06 08:47:02;;;;;;;17.17;11.07;;;;;;;3.36;100.00;147054.28;5010136;28;20309;-55
2023/12/06 08:49:29;;;;;;;19.27;11.40;;;;;;;3.33;100.00;147045.63;5006769;28;20228;-55
2023/12/06 08:51:56;;;;;;;17.57;11.47;;;;;;;3.34;100.00;147049.31;5007100;28;20228;-56
2023/12/06 08:54:23;;;;;;;22.17;13.10;;;;;;;3.41;100.00;147065.44;5006100;28;20232;-57
2023/12/06 08:56:50;;;;;;;20.13;12.73;;;;;;;3.42;100.00;147067.94;4999956;28;20228;-57
2023/12/06 08:59:16;;;;;;;28.73;15.83;;;;;;;3.36;100.00;147054.28;5008829;28;20236;-55
2023/12/06 09:01:43;;;;;;;40.67;19.73;;;;;;;3.39;100.00;147060.50;5000307;28;20224;-55
2023/12/06 09:04:11;;;;;;;25.20;13.70;;;;;;;3.59;100.00;147108.81;5005750;28;20237;-55
2023/12/06 09:06:38;;;;;;;53.33;27.77;;;;;;;4.07;100.00;147224.09;5000765;28;20696;-53
2023/12/06 09:09:05;;;;;;;19.37;11.60;;;;;;;4.19;100.00;147251.34;5002640;28;20251;-55
2023/12/06 09:11:32;;;;;;;16.73;11.43;;;;;;;4.08;100.00;147225.34;5004693;28;20233;-55
2023/12/06 09:13:59;;;;;;;23.37;14.20;;;;;;;3.70;100.00;147134.88;5006537;28;20239;-52
2023/12/06 09:16:25;;;;;;;18.47;11.67;;;;;;;3.70;100.00;147134.88;4990155;28;20596;-52
2023/12/06 09:18:52;;;;;;;18.80;11.57;;;;;;;3.52;100.00;147091.44;5001198;28;20232;-53
2023/12/06 09:21:20;;;;;;;18.20;11.63;;;;;;;3.51;100.00;147088.97;5006706;28;20239;-53
2023/12/06 09:23:48;;;;;;;20.67;12.27;;;;;;;3.47;100.00;147079.06;5001926;28;20225;-52
2023/12/06 09:26:15;;;;;;;18.67;11.80;;;;;;;3.43;100.00;147069.16;4998712;28;20592;-55
2023/12/06 09:28:42;;;;;;;17.93;11.87;;;;;;;3.42;100.00;147067.94;4999841;28;20311;-52
2023/12/06 09:31:08;;;;;;;19.13;11.57;;;;;;;3.39;100.00;147060.50;5003776;28;20225;-54
2023/12/06 09:33:35;;;;;;;19.53;11.90;;;;;;;3.47;100.00;147080.31;5003107;28;20227;-53
2023/12/06 09:36:01;;;;;;;19.37;11.43;;;;;;;3.40;100.00;147064.19;5008790;28;20327;-54
2023/12/06 09:38:29;;;;;;;20.43;12.23;;;;;;;3.46;100.00;147077.84;5004832;28;20287;-52
2023/12/06 09:40:57;;;;;;;18.03;10.83;;;;;;;3.51;100.00;147088.97;5001087;28;20605;-53
2023/12/06 09:43:24;;;;;;;19.80;11.67;;;;;;;3.49;100.00;147085.28;5005923;28;20705;-53
2023/12/06 09:45:52;;;;;;;19.97;11.67;;;;;;;3.50;100.00;147087.75;5005379;28;20572;-55
2023/12/06 09:48:19;;;;;;;19.00;12.00;;;;;;;3.46;100.00;147077.84;5010459;28;20236;-55
2023/12/06 09:50:45;;;;;;;20.13;11.20;;;;;;;3.52;100.00;147091.44;5007225;28;20216;-55
2023/12/06 09:53:12;;;;;;;17.53;11.97;;;;;;;3.56;100.00;147100.16;5006962;28;20715;-54
2023/12/06 09:55:40;;;;;;;17.50;10.50;;;;;;;3.50;100.00;147087.75;5008132;28;20234;-54
2023/12/06 09:58:07;;;;;;;17.63;11.00;;;;;;;3.46;100.00;147077.84;5013123;28;20246;-55
2023/12/06 10:00:35;;;;;;;18.23;10.80;;;;;;;3.54;100.00;147096.41;5008730;28;20284;-55
2023/12/06 10:03:01;;;;;;;17.23;10.33;;;;;;;3.50;100.00;147087.75;5012753;28;20239;-54
2023/12/06 10:05:28;;;;;;;17.60;11.13;;;;;;;3.51;100.00;147088.97;5008159;28;20634;-52
2023/12/06 10:07:54;;;;;;;18.33;11.53;;;;;;;3.49;100.00;147084.00;5009640;28;20307;-56
2023/12/06 10:10:23;;;;;;;18.23;11.20;;;;;;;3.50;100.00;147087.75;5000465;28;20223;-55
2023/12/06 10:12:52;;;;;;;16.60;10.87;;;;;;;3.59;100.00;147107.59;5006331;28;20326;-54
2023/12/06 10:15:19;;;;;;;17.80;10.40;;;;;;;3.61;100.00;147113.75;5006495;28;20231;-54
2023/12/06 10:17:46;;;;;;;19.60;12.70;;;;;;;3.62;100.00;147116.25;5008241;28;20223;-53
2023/12/06 10:20:13;;;;;;;16.97;10.80;;;;;;;3.59;100.00;147108.81;5012290;28;20236;-56
2023/12/06 10:22:40;;;;;;;17.67;10.60;;;;;;;3.71;100.00;147137.28;5009975;28;20232;-53
2023/12/06 10:25:08;;;;;;;17.17;10.87;;;;;;;3.74;100.00;147143.50;5016395;28;20233;-53
2023/12/06 10:27:36;;;;;;;19.53;11.87;;;;;;;3.72;100.00;147138.56;5011798;28;20259;-54
2023/12/06 10:30:04;;;;;;;19.90;12.83;;;;;;;3.83;100.00;147165.81;5011898;28;20723;-56
2023/12/06 10:32:32;;;;;;;19.63;12.10;;;;;;;3.82;100.00;147164.56;5005303;28;20291;-56
2023/12/06 10:34:59;;;;;;;19.77;12.23;;;;;;;3.80;100.00;147158.38;5008013;28;20288;-56
2023/12/06 10:37:28;;;;;;;20.30;12.63;;;;;;;3.87;100.00;147175.75;5010351;28;20219;-56
2023/12/06 10:39:59;;;;;;;17.83;10.97;;;;;;;3.93;100.00;147190.63;5001113;28;20240;-55
2023/12/06 10:42:32;;;;;;;18.80;12.20;;;;;;;3.90;100.00;147183.19;4999001;28;20642;-56
2023/12/06 10:45:00;;;;;;;18.57;10.53;;;;;;;3.82;100.00;147163.34;5000172;28;20246;-56
2023/12/06 10:47:29;;;;;;;20.73;11.77;;;;;;;3.85;100.00;147170.78;5012745;28;20234;-55
2023/12/06 10:49:56;;;;;;;16.27;10.47;;;;;;;3.94;100.00;147191.84;5006637;28;20234;-54
2023/12/06 10:52:23;;;;;;;18.60;11.57;;;;;;;3.86;100.00;147173.28;5010287;28;20243;-55
2023/12/06 10:54:50;;;;;;;17.80;11.23;;;;;;;3.79;100.00;147157.13;5004247;28;20241;-54
2023/12/06 10:57:19;;;;;;;23.90;14.97;;;;;;;3.86;100.00;147172.00;5005234;28;20228;-55
2023/12/06 10:59:46;;;;;;;16.27;11.33;;;;;;;3.94;100.00;147193.09;5006422;28;20244;-53
2023/12/06 11:02:13;;;;;;;17.27;10.47;;;;;;;3.98;100.00;147203.03;5009246;28;20237;-53
2023/12/06 11:04:47;;;;;;;22.10;14.10;;;;;;;3.94;100.00;147191.84;5006220;28;20576;-53
2023/12/06 11:07:25;;;;;;;25.97;18.90;;;;;;;3.93;100.00;147189.34;5010048;28;20247;-55
2023/12/06 11:10:08;;;;;;;38.77;24.40;;;;;;;3.96;100.00;147198.06;5006582;28;20243;-53
2023/12/06 11:12:48;;;;;;;20.50;14.17;;;;;;;3.96;100.00;147198.06;5002327;28;20721;-56
2023/12/06 11:15:28;;;;;;;50.87;28.43;;;;;;;3.91;100.00;147184.41;5004148;28;20232;-53
2023/12/06 11:18:03;;;;;;;34.73;20.60;;;;;;;3.89;100.00;147180.72;5004840;28;20239;-54
2023/12/06 11:20:31;;;;;;;24.30;14.17;;;;;;;3.92;100.00;147186.88;5002973;28;20232;-56
2023/12/06 11:22:58;;;;;;;21.50;12.57;;;;;;;3.79;100.00;147157.13;5007616;28;21037;-54